createdAt,value
2019-03-24T00:01:41.304Z,32.30
2019-03-24T00:04:09.022Z,31.50
2019-03-24T00:06:38.407Z,33.53
2019-03-24T00:09:08.292Z,34.20
2019-03-24T00:11:37.714Z,31.40
2019-03-24T00:14:07.229Z,33.27
2019-03-24T00:16:36.900Z,36.10
2019-03-24T00:19:06.421Z,35.37
2019-03-24T00:21:35.910Z,32.87
2019-03-24T00:24:05.344Z,31.60
2019-03-24T00:26:34.734Z,31.20
2019-03-24T00:29:04.207Z,32.90
2019-03-24T00:31:33.791Z,31.67
2019-03-24T00:34:03.833Z,31.53
2019-03-24T00:36:33.405Z,34.20
2019-03-24T00:39:04.049Z,35.23
2019-03-24T00:41:33.566Z,33.10
2019-03-24T00:44:04.615Z,34.17
2019-03-24T00:46:34.082Z,31.87
2019-03-24T00:49:03.599Z,33.50
2019-03-24T00:51:33.000Z,33.40
2019-03-24T00:54:02.390Z,33.10
2019-03-24T00:56:31.842Z,29.57
2019-03-24T00:59:01.235Z,33.80
2019-03-24T01:01:30.616Z,30.47
2019-03-24T01:04:00.141Z,32.27
2019-03-24T01:06:29.645Z,29.60
2019-03-24T01:08:59.470Z,32.37
2019-03-24T01:11:28.863Z,33.20
2019-03-24T01:13:58.294Z,31.13
2019-03-24T01:16:27.852Z,32.23
2019-03-24T01:18:57.201Z,30.27
2019-03-24T01:21:26.578Z,34.40
2019-03-24T01:23:56.076Z,33.50
2019-03-24T01:26:25.821Z,34.20
2019-03-24T01:28:55.317Z,34.10
2019-03-24T01:31:24.766Z,32.30
2019-03-24T01:33:54.297Z,35.20
2019-03-24T01:36:23.962Z,32.90
2019-03-24T01:38:53.325Z,33.17
2019-03-24T01:41:22.830Z,33.87
2019-03-24T01:43:52.239Z,32.87
2019-03-24T01:46:21.662Z,31.70
2019-03-24T01:48:51.169Z,33.10
2019-03-24T01:51:20.503Z,32.03
2019-03-24T01:53:49.951Z,31.37
2019-03-24T01:56:19.397Z,32.20
2019-03-24T01:58:48.737Z,33.40
2019-03-24T02:01:18.168Z,30.23
2019-03-24T02:03:47.577Z,30.10
2019-03-24T02:06:17.612Z,31.07
2019-03-24T02:08:46.960Z,32.33
2019-03-24T02:11:16.396Z,31.57
2019-03-24T02:13:45.955Z,31.50
2019-03-24T02:16:15.704Z,34.10
2019-03-24T02:18:45.131Z,31.87
2019-03-24T02:21:14.491Z,33.20
2019-03-24T02:23:44.020Z,32.17
2019-03-24T02:26:13.721Z,29.43
2019-03-24T02:28:43.102Z,31.57
2019-03-24T02:31:12.555Z,32.30
2019-03-24T02:33:41.968Z,31.23
2019-03-24T02:36:11.352Z,30.73
2019-03-24T02:38:40.826Z,31.60
2019-03-24T02:41:10.647Z,31.20
2019-03-24T02:43:39.998Z,31.40
2019-03-24T02:46:23.193Z,31.73
2019-03-24T02:48:41.076Z,33.67
2019-03-24T02:51:10.422Z,33.87
2019-03-24T02:53:39.949Z,32.27
2019-03-24T02:56:09.406Z,32.03
2019-03-24T02:58:38.869Z,38.00
2019-03-24T03:01:08.334Z,33.37
2019-03-24T03:03:37.815Z,33.47
2019-03-24T03:06:07.217Z,33.00
2019-03-24T03:08:37.442Z,31.93
2019-03-24T03:11:07.040Z,32.30
2019-03-24T03:13:36.450Z,29.73
2019-03-24T03:16:05.975Z,26.37
2019-03-24T03:18:35.336Z,28.80
2019-03-24T03:21:04.774Z,27.70
2019-03-24T03:23:34.333Z,28.40
2019-03-24T03:26:03.772Z,29.27
2019-03-24T03:28:33.140Z,27.47
2019-03-24T03:31:02.452Z,28.03
2019-03-24T03:33:32.265Z,26.83
2019-03-24T03:36:02.187Z,25.57
2019-03-24T03:38:31.638Z,27.17
2019-03-24T03:41:01.184Z,30.37
2019-03-24T03:43:30.649Z,27.20
2019-03-24T03:46:00.055Z,26.63
2019-03-24T03:48:29.515Z,28.83
2019-03-24T03:50:58.919Z,28.37
2019-03-24T03:53:28.565Z,27.77
2019-03-24T03:55:58.064Z,29.27
2019-03-24T03:58:27.675Z,26.77
2019-03-24T04:00:58.662Z,29.60
2019-03-24T04:03:28.121Z,27.37
2019-03-24T04:05:57.559Z,25.93
2019-03-24T04:08:26.916Z,27.50
2019-03-24T04:10:56.417Z,27.83
2019-03-24T04:13:25.733Z,27.33
2019-03-24T04:15:55.156Z,27.40
2019-03-24T04:18:26.561Z,27.37
2019-03-24T04:20:56.004Z,28.87
2019-03-24T04:23:25.499Z,29.60
2019-03-24T04:25:55.037Z,31.87
2019-03-24T04:28:24.483Z,31.57
2019-03-24T04:30:53.934Z,28.23
2019-03-24T04:33:23.307Z,32.70
2019-03-24T04:35:52.695Z,31.70
2019-03-24T04:38:22.360Z,32.70
2019-03-24T04:40:51.925Z,32.80
2019-03-24T04:43:21.815Z,32.80
2019-03-24T04:45:51.418Z,31.70
2019-03-24T04:48:20.932Z,37.30
2019-03-24T04:50:50.397Z,33.70
2019-03-24T04:53:20.871Z,33.67
2019-03-24T04:55:50.450Z,36.67
2019-03-24T04:58:19.982Z,39.23
2019-03-24T05:00:49.406Z,40.20
2019-03-24T05:03:18.741Z,39.50
2019-03-24T05:05:48.318Z,37.97
2019-03-24T05:08:17.734Z,39.30
2019-03-24T05:10:47.109Z,39.27
2019-03-24T05:13:16.878Z,33.87
2019-03-24T05:15:46.406Z,35.83
2019-03-24T05:18:15.962Z,32.60
2019-03-24T05:20:45.686Z,36.00
2019-03-24T05:23:15.053Z,35.03
2019-03-24T05:25:44.564Z,33.23
2019-03-24T05:28:14.034Z,35.63
2019-03-24T05:30:43.568Z,34.53
2019-03-24T05:33:12.954Z,37.80
2019-03-24T05:35:42.321Z,41.87
2019-03-24T05:38:11.776Z,40.67
2019-03-24T05:40:41.182Z,41.03
2019-03-24T05:43:10.559Z,44.23
2019-03-24T05:45:39.997Z,42.37
2019-03-24T05:48:09.357Z,42.70
2019-03-24T05:50:38.760Z,42.07
2019-03-24T05:53:08.180Z,42.87
2019-03-24T05:55:37.633Z,41.67
2019-03-24T05:58:07.022Z,41.80
2019-03-24T06:00:36.482Z,41.23
2019-03-24T06:03:05.959Z,45.70
2019-03-24T06:05:35.516Z,44.87
2019-03-24T06:08:04.975Z,43.67
2019-03-24T06:10:34.338Z,45.27
2019-03-24T06:13:03.848Z,41.00
2019-03-24T06:15:33.218Z,41.37
2019-03-24T06:18:02.539Z,43.70
2019-03-24T06:20:32.014Z,43.10
2019-03-24T06:23:01.552Z,47.83
2019-03-24T06:25:40.577Z,44.50
2019-03-24T06:28:09.978Z,44.60
2019-03-24T06:30:39.554Z,42.20
2019-03-24T06:33:09.070Z,43.03
2019-03-24T06:35:38.571Z,40.40
2019-03-24T06:38:07.929Z,40.37
2019-03-24T06:40:37.370Z,41.37
2019-03-24T06:43:06.704Z,40.53
2019-03-24T06:45:36.195Z,40.23
2019-03-24T06:48:05.586Z,38.73
2019-03-24T06:50:35.134Z,43.60
2019-03-24T06:53:04.610Z,40.80
2019-03-24T06:55:34.116Z,40.13
2019-03-24T06:58:03.682Z,43.23
2019-03-24T07:00:33.108Z,37.07
2019-03-24T07:03:02.636Z,40.47
2019-03-24T07:05:32.040Z,41.43
2019-03-24T07:08:01.622Z,40.27
2019-03-24T07:10:31.169Z,38.40
2019-03-24T07:13:00.631Z,38.60
2019-03-24T07:15:30.083Z,38.70
2019-03-24T07:18:08.144Z,37.30
2019-03-24T07:20:31.032Z,35.10
2019-03-24T07:23:00.504Z,36.00
2019-03-24T07:25:29.942Z,34.50
2019-03-24T07:27:59.376Z,38.70
2019-03-24T07:30:28.828Z,37.37
2019-03-24T07:32:58.314Z,34.30
2019-03-24T07:35:27.773Z,38.83
2019-03-24T07:37:57.136Z,37.43
2019-03-24T07:40:26.525Z,35.80
2019-03-24T07:42:55.959Z,36.37
2019-03-24T07:45:25.483Z,36.30
2019-03-24T07:47:54.869Z,33.23
2019-03-24T07:50:24.366Z,35.60
2019-03-24T07:52:53.853Z,35.50
2019-03-24T07:55:23.251Z,32.23
2019-03-24T07:57:52.606Z,31.03
2019-03-24T08:00:33.376Z,32.30
2019-03-24T08:03:02.827Z,31.10
2019-03-24T08:05:32.362Z,29.20
2019-03-24T08:08:01.945Z,31.17
2019-03-24T08:10:31.447Z,29.20
2019-03-24T08:13:00.966Z,31.40
2019-03-24T08:15:30.413Z,31.00
2019-03-24T08:18:00.104Z,31.23
2019-03-24T08:20:29.610Z,30.63
2019-03-24T08:22:58.989Z,30.63
2019-03-24T08:25:28.471Z,29.50
2019-03-24T08:27:58.146Z,28.10
2019-03-24T08:30:52.324Z,28.50
2019-03-24T08:33:21.787Z,30.43
2019-03-24T08:35:51.289Z,28.90
2019-03-24T08:38:20.728Z,28.60
2019-03-24T08:40:50.154Z,28.27
2019-03-24T08:43:19.638Z,28.33
2019-03-24T08:45:49.084Z,26.77
2019-03-24T08:48:18.585Z,25.87
2019-03-24T08:50:48.528Z,30.17
2019-03-24T08:53:17.952Z,28.20
2019-03-24T08:55:47.384Z,26.80
2019-03-24T08:58:16.922Z,27.90
2019-03-24T09:00:46.428Z,28.93
2019-03-24T09:03:15.963Z,27.90
2019-03-24T09:05:45.378Z,27.53
2019-03-24T09:08:14.721Z,28.23
2019-03-24T09:10:44.092Z,27.33
2019-03-24T09:13:13.411Z,28.77
2019-03-24T09:15:43.298Z,27.73
2019-03-24T09:18:13.232Z,27.80
2019-03-24T09:20:42.715Z,29.17
2019-03-24T09:23:12.153Z,29.57
2019-03-24T09:25:41.662Z,27.83
2019-03-24T09:28:11.157Z,29.17
2019-03-24T09:30:40.639Z,27.47
2019-03-24T09:33:10.167Z,28.87
2019-03-24T09:35:39.621Z,28.17
2019-03-24T09:38:08.932Z,29.80
2019-03-24T09:40:38.256Z,27.70
2019-03-24T09:43:08.191Z,28.13
2019-03-24T09:45:37.721Z,28.77
2019-03-24T09:48:07.350Z,27.33
2019-03-24T09:50:36.773Z,29.77
2019-03-24T09:53:06.355Z,28.57
2019-03-24T09:55:35.898Z,27.50
2019-03-24T09:58:05.512Z,27.57
2019-03-24T10:00:34.944Z,29.40
2019-03-24T10:03:04.539Z,27.47
2019-03-24T10:05:34.208Z,30.60
2019-03-24T10:08:03.646Z,28.27
2019-03-24T10:10:33.255Z,26.73
2019-03-24T10:13:02.687Z,25.60
2019-03-24T10:15:32.488Z,26.33
2019-03-24T10:18:02.075Z,27.73
2019-03-24T10:20:31.620Z,26.93
2019-03-24T10:23:01.091Z,27.07
2019-03-24T10:25:31.138Z,26.70
2019-03-24T10:28:00.584Z,27.47
2019-03-24T10:30:29.971Z,27.90
2019-03-24T10:32:59.415Z,26.43
2019-03-24T10:35:28.872Z,27.37
2019-03-24T10:37:58.527Z,23.50
2019-03-24T10:40:28.945Z,24.07
2019-03-24T10:42:58.645Z,26.30
2019-03-24T10:45:28.181Z,24.00
2019-03-24T10:47:57.594Z,24.73
2019-03-24T10:50:27.227Z,24.17
2019-03-24T10:52:56.843Z,22.90
2019-03-24T10:55:26.429Z,23.43
2019-03-24T10:57:55.869Z,26.23
2019-03-24T11:00:37.797Z,24.40
2019-03-24T11:03:07.329Z,20.53
2019-03-24T11:05:36.840Z,23.50
2019-03-24T11:08:06.325Z,21.93
2019-03-24T11:10:35.715Z,22.00
2019-03-24T11:13:05.145Z,23.87
2019-03-24T11:15:34.520Z,22.43
2019-03-24T11:18:04.029Z,22.60
2019-03-24T11:20:43.897Z,22.00
2019-03-24T11:23:13.390Z,23.00
2019-03-24T11:25:42.934Z,22.07
2019-03-24T11:28:12.415Z,20.97
2019-03-24T11:30:42.119Z,18.40
2019-03-24T11:33:11.723Z,17.50
2019-03-24T11:35:41.252Z,18.10
2019-03-24T11:38:10.726Z,18.10
2019-03-24T11:40:40.167Z,18.83
2019-03-24T11:43:09.753Z,20.20
2019-03-24T11:45:39.228Z,21.03
2019-03-24T11:48:08.778Z,22.10
2019-03-24T11:50:38.176Z,22.63
2019-03-24T11:53:07.735Z,20.43
2019-03-24T11:55:37.261Z,21.57
2019-03-24T11:58:07.185Z,22.17
2019-03-24T12:00:38.439Z,19.60
2019-03-24T12:03:08.768Z,21.23
2019-03-24T12:05:38.259Z,21.60
2019-03-24T12:08:07.876Z,21.50
2019-03-24T12:10:37.296Z,22.93
2019-03-24T12:13:06.808Z,22.10
2019-03-24T12:15:36.670Z,22.47
2019-03-24T12:18:09.743Z,22.30
2019-03-24T12:20:39.541Z,22.17
2019-03-24T12:23:09.078Z,22.17
2019-03-24T12:25:38.463Z,24.07
2019-03-24T12:28:08.102Z,23.93
2019-03-24T12:30:37.710Z,21.90
2019-03-24T12:33:07.209Z,19.37
2019-03-24T12:35:36.656Z,19.13
2019-03-24T12:38:06.127Z,19.33
2019-03-24T12:40:35.736Z,18.33
2019-03-24T12:43:05.159Z,15.77
2019-03-24T12:45:34.721Z,16.63
2019-03-24T12:48:04.251Z,17.87
2019-03-24T12:50:33.723Z,16.03
2019-03-24T12:53:03.262Z,17.50
2019-03-24T12:55:33.599Z,16.80
2019-03-24T12:58:04.603Z,18.47
2019-03-24T13:00:35.854Z,17.13
2019-03-24T13:03:05.845Z,17.30
2019-03-24T13:05:35.275Z,19.43
2019-03-24T13:08:17.635Z,18.60
2019-03-24T13:10:47.073Z,18.00
2019-03-24T13:13:16.616Z,21.90
2019-03-24T13:15:46.101Z,21.07
2019-03-24T13:18:15.600Z,19.80
2019-03-24T13:20:45.211Z,21.00
2019-03-24T13:23:14.712Z,25.30
2019-03-24T13:25:44.236Z,21.67
2019-03-24T13:28:13.759Z,21.17
2019-03-24T13:30:43.259Z,20.03
2019-03-24T13:33:12.795Z,20.90
2019-03-24T13:35:42.615Z,20.33
2019-03-24T13:38:11.960Z,19.57
2019-03-24T13:40:41.380Z,19.77
2019-03-24T13:43:10.749Z,18.60
2019-03-24T13:45:40.215Z,16.83
2019-03-24T13:48:09.573Z,15.50
2019-03-24T13:50:38.977Z,18.63
2019-03-24T13:53:08.439Z,18.57
2019-03-24T13:55:37.985Z,18.40
2019-03-24T13:58:12.114Z,19.03
2019-03-24T14:00:41.322Z,18.30
2019-03-24T14:03:10.848Z,16.47
2019-03-24T14:05:40.487Z,17.20
2019-03-24T14:08:10.079Z,16.50
2019-03-24T14:10:39.547Z,16.83
2019-03-24T14:13:08.989Z,15.33
2019-03-24T14:15:38.481Z,15.37
2019-03-24T14:18:07.937Z,15.27
2019-03-24T14:20:45.399Z,16.00
2019-03-24T14:23:14.878Z,13.73
2019-03-24T14:25:44.349Z,14.10
2019-03-24T14:28:13.796Z,12.80
2019-03-24T14:30:44.705Z,12.37
2019-03-24T14:33:14.964Z,12.07
2019-03-24T14:35:45.894Z,12.10
2019-03-24T14:38:15.521Z,11.80
2019-03-24T14:40:45.024Z,11.43
2019-03-24T14:43:14.563Z,11.03
2019-03-24T14:45:44.170Z,12.17
2019-03-24T14:48:13.604Z,11.30
2019-03-24T14:50:53.578Z,11.23
2019-03-24T14:53:14.294Z,11.47
2019-03-24T14:55:43.778Z,13.57
2019-03-24T14:58:13.191Z,12.70
2019-03-24T15:00:43.053Z,11.70
2019-03-24T15:03:13.611Z,12.40
2019-03-24T15:05:43.870Z,12.93
2019-03-24T15:08:13.699Z,12.47
2019-03-24T15:10:43.262Z,13.00
2019-03-24T15:13:12.783Z,10.83
2019-03-24T15:15:42.447Z,12.00
2019-03-24T15:18:12.047Z,11.97
2019-03-24T15:20:41.546Z,11.90
2019-03-24T15:23:11.110Z,12.80
2019-03-24T15:25:40.584Z,12.23
2019-03-24T15:28:10.019Z,11.87
2019-03-24T15:30:39.589Z,13.57
2019-03-24T15:33:09.225Z,11.57
2019-03-24T15:35:38.793Z,12.20
2019-03-24T15:38:11.499Z,12.30
2019-03-24T15:40:52.246Z,12.50
2019-03-24T15:43:21.723Z,13.97
2019-03-24T15:45:51.213Z,14.77
2019-03-24T15:48:20.617Z,13.50
2019-03-24T15:50:50.133Z,14.53
2019-03-24T15:53:19.617Z,14.40
2019-03-24T15:55:49.063Z,15.50
2019-03-24T15:58:19.014Z,16.10
2019-03-24T16:00:49.241Z,16.07
2019-03-24T16:03:19.111Z,15.10
2019-03-24T16:05:48.937Z,16.90
2019-03-24T16:08:18.605Z,16.13
2019-03-24T16:10:48.218Z,16.00
2019-03-24T16:13:22.304Z,15.93
2019-03-24T16:15:51.936Z,16.23
2019-03-24T16:18:21.504Z,15.77
2019-03-24T16:20:50.952Z,16.27
2019-03-24T16:23:20.453Z,16.80
2019-03-24T16:25:49.909Z,16.43
2019-03-24T16:28:19.601Z,17.77
2019-03-24T16:30:49.400Z,16.60
2019-03-24T16:33:18.954Z,16.13
2019-03-24T16:35:49.537Z,17.30
2019-03-24T16:38:25.903Z,16.47
2019-03-24T16:40:55.365Z,16.20
2019-03-24T16:43:24.880Z,17.40
2019-03-24T16:45:54.292Z,16.60
2019-03-24T16:48:23.719Z,17.20
2019-03-24T16:50:53.353Z,20.00
2019-03-24T16:53:22.843Z,17.70
2019-03-24T16:55:52.390Z,16.50
2019-03-24T16:58:22.234Z,16.87
2019-03-24T17:00:51.742Z,17.60
2019-03-24T17:03:21.202Z,17.47
2019-03-24T17:05:50.535Z,18.37
2019-03-24T17:08:20.130Z,17.87
2019-03-24T17:10:49.729Z,17.80
2019-03-24T17:13:19.384Z,18.40
2019-03-24T17:15:48.941Z,18.17
2019-03-24T17:18:19.609Z,18.67
2019-03-24T17:20:49.053Z,18.87
2019-03-24T17:23:18.414Z,19.03
2019-03-24T17:25:48.186Z,20.87
2019-03-24T17:28:17.991Z,18.33
2019-03-24T17:30:47.406Z,19.00
2019-03-24T17:33:16.926Z,19.80
2019-03-24T17:35:46.678Z,19.30
2019-03-24T17:38:16.200Z,17.77
2019-03-24T17:40:45.624Z,18.83
2019-03-24T17:43:15.139Z,16.93
2019-03-24T17:45:44.928Z,18.00
2019-03-24T17:48:14.646Z,18.27
2019-03-24T17:50:44.229Z,17.50
2019-03-24T17:53:13.871Z,18.07
2019-03-24T17:55:43.293Z,17.97
2019-03-24T17:58:12.926Z,19.27
2019-03-24T18:00:44.858Z,17.47
2019-03-24T18:03:14.306Z,18.80
2019-03-24T18:05:43.953Z,19.37
2019-03-24T18:08:13.506Z,18.80
2019-03-24T18:10:43.306Z,23.50
2019-03-24T18:13:12.837Z,25.97
2019-03-24T18:15:42.470Z,18.87
2019-03-24T18:18:12.474Z,20.70
2019-03-24T18:20:42.203Z,18.57
2019-03-24T18:23:11.804Z,22.20
2019-03-24T18:25:41.510Z,21.27
2019-03-24T18:28:11.057Z,24.43
2019-03-24T18:30:40.667Z,20.47
2019-03-24T18:33:10.341Z,19.97
2019-03-24T18:35:39.873Z,20.77
2019-03-24T18:38:09.386Z,20.17
2019-03-24T18:40:38.891Z,22.27
2019-03-24T18:43:08.839Z,23.50
2019-03-24T18:45:38.391Z,22.60
2019-03-24T18:48:10.407Z,21.40
2019-03-24T18:50:40.056Z,21.43
2019-03-24T18:53:09.525Z,22.10
2019-03-24T18:55:39.063Z,21.87
2019-03-24T18:58:11.038Z,18.10
2019-03-24T19:00:40.512Z,21.47
2019-03-24T19:03:10.053Z,20.47
2019-03-24T19:05:40.057Z,23.77
2019-03-24T19:08:09.660Z,21.27
2019-03-24T19:10:39.110Z,20.10
2019-03-24T19:13:08.884Z,17.13
2019-03-24T19:15:40.099Z,17.27
2019-03-24T19:18:09.680Z,15.37
2019-03-24T19:20:39.157Z,14.43
2019-03-24T19:23:09.442Z,14.23
2019-03-24T19:25:38.913Z,14.40
2019-03-24T19:28:08.493Z,14.80
2019-03-24T19:30:39.555Z,14.00
2019-03-24T19:33:09.110Z,13.03
2019-03-24T19:35:38.623Z,13.60
2019-03-24T19:38:08.134Z,12.37
2019-03-24T19:40:37.734Z,12.67
2019-03-24T19:43:07.360Z,11.50
2019-03-24T19:45:36.838Z,10.70
2019-03-24T19:48:06.465Z,10.20
2019-03-24T19:50:36.838Z,10.53
2019-03-24T19:53:06.490Z,10.10
2019-03-24T19:55:35.977Z,9.03
2019-03-24T19:58:05.504Z,10.17
2019-03-24T20:00:35.106Z,10.17
2019-03-24T20:03:04.646Z,9.40
2019-03-24T20:05:34.312Z,9.30
2019-03-24T20:08:04.075Z,8.77
2019-03-24T20:10:33.679Z,7.97
2019-03-24T20:13:03.269Z,8.20
2019-03-24T20:15:32.796Z,6.90
2019-03-24T20:18:02.183Z,8.77
2019-03-24T20:20:31.585Z,10.10
2019-03-24T20:23:02.500Z,8.93
2019-03-24T20:25:34.377Z,13.80
2019-03-24T20:28:03.876Z,12.70
2019-03-24T20:30:33.636Z,26.33
2019-03-24T20:33:03.093Z,11.70
2019-03-24T20:35:33.436Z,9.67
2019-03-24T20:38:03.086Z,9.73
2019-03-24T20:40:32.708Z,7.27
2019-03-24T20:43:02.477Z,7.93
2019-03-24T20:45:32.072Z,7.93
2019-03-24T20:48:03.589Z,8.93
2019-03-24T20:50:33.200Z,7.00
2019-03-24T20:53:05.644Z,8.53
2019-03-24T20:55:34.545Z,7.30
2019-03-24T20:58:04.081Z,8.80
2019-03-24T21:00:34.634Z,11.53
2019-03-24T21:03:04.459Z,10.70
2019-03-24T21:05:33.963Z,9.90
2019-03-24T21:08:03.636Z,8.27
2019-03-24T21:10:32.990Z,7.50
2019-03-24T21:13:02.352Z,7.30
2019-03-24T21:15:31.787Z,7.40
2019-03-24T21:18:01.334Z,7.67
2019-03-24T21:20:30.760Z,8.77
2019-03-24T21:23:00.106Z,10.03
2019-03-24T21:25:32.281Z,25.00
2019-03-24T21:28:01.830Z,14.53
2019-03-24T21:30:35.607Z,13.53
2019-03-24T21:33:05.096Z,13.23
2019-03-24T21:35:36.706Z,11.80
2019-03-24T21:38:09.281Z,10.23
2019-03-24T21:40:41.354Z,9.37
2019-03-24T21:43:10.815Z,8.50
2019-03-24T21:45:40.186Z,9.17
2019-03-24T21:48:09.558Z,9.83
2019-03-24T21:50:38.922Z,12.03
2019-03-24T21:53:08.627Z,10.53
2019-03-24T21:55:39.625Z,8.80
2019-03-24T21:58:09.153Z,7.63
2019-03-24T22:00:38.643Z,8.70
2019-03-24T22:03:08.362Z,8.03
2019-03-24T22:05:37.798Z,9.40
2019-03-24T22:08:07.311Z,6.67
2019-03-24T22:10:36.795Z,7.40
2019-03-24T22:13:06.451Z,6.17
2019-03-24T22:15:35.961Z,6.30
2019-03-24T22:18:05.657Z,6.27
2019-03-24T22:20:35.195Z,5.87
2019-03-24T22:23:04.740Z,5.67
2019-03-24T22:25:34.282Z,6.10
2019-03-24T22:28:05.263Z,5.73
2019-03-24T22:30:34.740Z,6.67
2019-03-24T22:33:04.460Z,7.80
2019-03-24T22:35:34.090Z,6.00
2019-03-24T22:38:03.562Z,6.30
2019-03-24T22:40:33.071Z,6.20
2019-03-24T22:43:02.544Z,5.80
2019-03-24T22:45:32.160Z,4.43
2019-03-24T22:48:01.618Z,4.37
2019-03-24T22:50:31.068Z,4.90
2019-03-24T22:53:00.429Z,7.93
2019-03-24T22:55:29.865Z,4.70
2019-03-24T22:57:59.232Z,11.13
2019-03-24T23:00:46.637Z,6.60
2019-03-24T23:03:16.330Z,7.33
2019-03-24T23:05:45.811Z,5.73
2019-03-24T23:08:15.323Z,4.10
2019-03-24T23:10:47.921Z,3.83
2019-03-24T23:13:17.377Z,4.70
2019-03-24T23:15:47.117Z,3.50
2019-03-24T23:18:16.481Z,5.67
2019-03-24T23:20:46.091Z,4.70
2019-03-24T23:23:15.489Z,5.70
2019-03-24T23:25:45.070Z,6.60
2019-03-24T23:28:15.042Z,7.33
2019-03-24T23:30:44.613Z,6.60
2019-03-24T23:33:14.231Z,6.07
2019-03-24T23:35:43.800Z,6.70
2019-03-24T23:38:13.270Z,6.83
2019-03-24T23:40:42.888Z,6.20
2019-03-24T23:43:12.412Z,5.50
2019-03-24T23:45:42.159Z,6.73
2019-03-24T23:48:11.534Z,5.20
2019-03-24T23:50:40.942Z,6.20
2019-03-24T23:53:10.475Z,6.13
2019-03-24T23:55:40.122Z,7.03
2019-03-24T23:58:09.522Z,6.70
